Winchester, Connecticut
Current Conditions -  °F | °C
As of 4:51 PM on Monday 20 Oct 2014 (Local Time) from KBDL Reporting Station
Overcast Overcast  
Wind Chill: 54°   Ceiling: 12000
Heat Index: 54°   Visibility: 10mi
Dew Point: 35°   Wind: 3mph
Humidity: 49%   Direction: 220°SW
Pressure: 29.97"   Gusts: NA
Location:  41.9462°N, 73.0763°W
Report Text: KBDL 202051Z 22003KT 10SM BKN120 OVC220 12/02 A2997 RMK AO2 SLP150 T01220017 58006
Loading
Personal Weather Stations






























Interactive Weather Map
Tropical Storm Tracking
New forecast layout! Learn more

10-Day Weather Forecast

Advertisements
Track Severe Weather on mobile